Time;durP1;ratioP1;P1;durP2;ratioP2;P2;SDS_P1;SDS_P2;PMS_P1;PMS_P2;Temp;Humidity;BMP_temperature;BMP_pressure;BME280_temperature;BME280_humidity;BME280_pressure;Samples;Min_cycle;Max_cycle;Signal;HPM_P1;HPM_P2
2022/01/18 00:01:31;;;;;;;9.63;6.40;;;;;;;3.21;100.00;96852.75;5070826;28;20198;-66
2022/01/18 00:03:58;;;;;;;10.07;6.07;;;;;;;3.22;100.00;96854.34;5055092;28;20272;-66
2022/01/18 00:06:23;;;;;;;8.80;5.97;;;;;;;3.23;100.00;96861.34;5055311;28;20275;-66
2022/01/18 00:08:49;;;;;;;8.30;5.80;;;;;;;3.25;100.00;96861.00;5070740;28;20254;-66
2022/01/18 00:11:17;;;;;;;9.03;6.13;;;;;;;3.24;100.00;96865.59;5070757;28;20194;-67
2022/01/18 00:13:46;;;;;;;8.70;6.20;;;;;;;3.24;100.00;96862.09;5071183;28;20194;-60
2022/01/18 00:16:28;;;;;;;8.10;5.97;;;;;;;3.21;100.00;96866.25;5071002;28;20236;-66
2022/01/18 00:18:55;;;;;;;8.03;5.97;;;;;;;3.21;100.00;96862.78;5070689;28;20214;-67
2022/01/18 00:21:32;;;;;;;8.63;5.83;;;;;;;3.26;100.00;96863.41;5070641;28;20218;-67
2022/01/18 00:23:58;;;;;;;9.07;6.20;;;;;;;3.32;100.00;96875.59;5070929;28;20205;-67
2022/01/18 00:26:28;;;;;;;8.67;5.90;;;;;;;3.32;100.00;96872.91;5070919;28;20206;-66
2022/01/18 00:28:59;;;;;;;8.40;6.10;;;;;;;3.33;100.00;96871.81;5070624;28;20264;-66
2022/01/18 00:39:14;;;;;;;9.40;6.20;;;;;;;3.41;100.00;96891.78;5054603;28;20190;-58
2022/01/18 00:41:40;;;;;;;8.13;5.93;;;;;;;3.37;100.00;96894.34;5070025;28;20292;-58
2022/01/18 00:44:08;;;;;;;9.27;6.03;;;;;;;3.38;100.00;96901.31;5070500;28;20252;-58
2022/01/18 00:46:34;;;;;;;8.67;5.93;;;;;;;3.35;100.00;96907.34;5070313;28;20201;-58
2022/01/18 00:49:01;;;;;;;8.53;6.03;;;;;;;3.34;100.00;96900.38;5070371;28;20229;-68
2022/01/18 00:51:38;;;;;;;6.87;5.57;;;;;;;3.33;100.00;96909.59;5070739;28;20206;-58
2022/01/18 00:54:05;;;;;;;7.90;5.50;;;;;;;3.31;100.00;96911.81;5069982;28;20255;-58
2022/01/18 00:56:32;;;;;;;10.13;6.60;;;;;;;3.29;100.00;96908.63;5069567;28;20293;-58
2022/01/18 00:58:59;;;;;;;8.87;6.03;;;;;;;3.26;100.00;96914.69;5069388;28;20209;-59
2022/01/18 01:01:28;;;;;;;8.50;6.50;;;;;;;3.25;100.00;96915.75;5070244;28;20206;-58
2022/01/18 01:03:56;;;;;;;8.80;6.27;;;;;;;3.25;100.00;96921.16;5070229;28;20203;-58
2022/01/18 01:06:22;;;;;;;10.03;6.73;;;;;;;3.20;100.00;96921.34;5070515;28;20212;-58
2022/01/18 01:08:48;;;;;;;9.30;6.20;;;;;;;3.16;100.00;96920.38;5070386;28;20202;-49
2022/01/18 01:11:14;;;;;;;9.30;6.87;;;;;;;3.14;100.00;96916.44;5069750;28;20232;-48
2022/01/18 01:13:44;;;;;;;8.63;6.53;;;;;;;3.06;100.00;96920.69;5070395;28;20232;-50
2022/01/18 01:19:29;;;;;;;10.43;6.73;;;;;;;3.06;100.00;96936.88;5012757;28;20220;-48
2022/01/18 01:43:26;;;;;;;10.13;6.63;;;;;;;3.01;100.00;96947.84;5054515;28;20232;-69
2022/01/18 01:45:53;;;;;;;11.07;7.70;;;;;;;3.02;100.00;96946.72;5070075;28;20288;-51
2022/01/18 01:48:19;;;;;;;8.73;6.93;;;;;;;3.02;100.00;96959.41;5069568;28;20194;-59
2022/01/18 01:50:50;;;;;;;10.53;7.47;;;;;;;3.01;100.00;96953.25;5069413;28;20243;-59
2022/01/18 01:53:19;;;;;;;11.03;7.57;;;;;;;3.04;100.00;96955.31;5054482;28;20200;-59
2022/01/18 01:55:47;;;;;;;9.87;7.40;;;;;;;3.03;100.00;96942.91;5068899;28;20247;-59
2022/01/18 01:58:12;;;;;;;10.90;7.70;;;;;;;3.05;100.00;96946.09;5069023;28;20260;-59
2022/01/18 02:00:48;;;;;;;9.97;6.83;;;;;;;3.01;100.00;96931.66;5068806;28;20194;-60
2022/01/18 02:03:14;;;;;;;11.33;7.70;;;;;;;3.01;100.00;96934.34;5069364;28;20198;-67
2022/01/18 02:05:40;;;;;;;10.67;7.27;;;;;;;3.01;100.00;96934.34;5053597;28;20201;-59
2022/01/18 02:08:07;;;;;;;11.57;7.13;;;;;;;3.01;100.00;96926.25;5069562;28;20256;-58
2022/01/18 02:10:37;;;;;;;11.53;7.50;;;;;;;3.02;100.00;96918.94;5072368;28;20198;-58
2022/01/18 02:13:04;;;;;;;12.03;7.50;;;;;;;3.03;100.00;96924.03;5072645;28;20205;-58
2022/01/18 02:15:30;;;;;;;11.40;8.13;;;;;;;3.04;100.00;96928.34;5072576;28;20255;-58
2022/01/18 02:23:29;;;;;;;11.70;7.13;;;;;;;3.04;100.00;96920.25;5057308;28;20229;-68
2022/01/18 02:25:54;;;;;;;11.30;7.30;;;;;;;3.04;100.00;96919.44;5072647;28;20209;-68
2022/01/18 02:28:24;;;;;;;10.87;7.10;;;;;;;3.08;100.00;96918.50;5072449;28;20224;-69
2022/01/18 02:30:50;;;;;;;10.63;7.60;;;;;;;3.11;100.00;96915.16;5056711;28;20212;-68
2022/01/18 02:33:16;;;;;;;11.73;8.40;;;;;;;3.08;100.00;96913.09;5072460;28;20190;-68
2022/01/18 02:35:41;;;;;;;10.10;7.50;;;;;;;3.12;100.00;96914.03;5072505;28;20224;-68
2022/01/18 02:38:07;;;;;;;11.23;7.67;;;;;;;3.10;100.00;96916.25;5072392;28;20216;-58
2022/01/18 02:40:33;;;;;;;11.67;8.53;;;;;;;3.03;100.00;96899.75;5072541;28;20244;-58
2022/01/18 02:43:46;;;;;;;12.47;7.93;;;;;;;3.03;100.00;96902.44;5072736;28;20228;-57
2022/01/18 02:45:47;;;;;;;10.80;7.03;;;;;;;3.01;100.00;96901.97;5056365;28;20223;-56
2022/01/18 02:48:12;;;;;;;11.97;7.43;;;;;;;3.01;100.00;96901.97;5072551;28;20220;-55
2022/01/18 02:50:38;;;;;;;11.23;7.43;;;;;;;3.00;100.00;96905.81;5071787;28;20248;-57
2022/01/18 02:53:03;;;;;;;10.63;7.43;;;;;;;3.01;100.00;96903.88;5072109;28;20201;-56
2022/01/18 02:55:28;;;;;;;10.47;7.43;;;;;;;3.01;100.00;96915.47;5072404;28;20196;-56
2022/01/18 02:58:01;;;;;;;12.13;7.30;;;;;;;3.00;100.00;96915.78;5072015;28;20263;-60
2022/01/18 03:00:43;;;;;;;11.60;7.90;;;;;;;2.97;100.00;96922.63;5072563;28;20209;-68
2022/01/18 03:03:13;;;;;;;10.70;7.80;;;;;;;3.03;100.00;96915.94;5072358;28;20194;-68
2022/01/18 03:05:43;;;;;;;10.47;7.57;;;;;;;3.04;100.00;96912.16;5071913;28;20205;-68
2022/01/18 03:08:10;;;;;;;12.27;7.90;;;;;;;3.04;100.00;96909.44;5071542;28;20297;-68
2022/01/18 03:10:37;;;;;;;13.20;9.10;;;;;;;3.02;100.00;96917.06;5072113;28;20252;-68
2022/01/18 03:13:03;;;;;;;11.63;8.50;;;;;;;3.01;100.00;96926.25;5072471;28;20201;-68
2022/01/18 03:15:29;;;;;;;12.07;8.20;;;;;;;3.03;100.00;96932.13;5071564;28;20563;-58
2022/01/18 03:17:54;;;;;;;11.73;8.03;;;;;;;3.02;100.00;96932.44;5071451;28;20210;-52
2022/01/18 03:20:20;;;;;;;10.57;7.47;;;;;;;3.01;100.00;96934.34;5070630;28;20203;-59
2022/01/18 03:22:48;;;;;;;13.90;8.60;;;;;;;3.02;100.00;96932.44;5056129;28;20201;-59
2022/01/18 03:26:01;;;;;;;11.00;8.33;;;;;;;3.01;100.00;96931.66;5071409;28;20297;-58
2022/01/18 03:28:05;;;;;;;11.93;8.23;;;;;;;3.04;100.00;96928.34;5048619;28;20189;-59
2022/01/18 03:30:40;;;;;;;13.50;8.40;;;;;;;3.10;100.00;96923.56;5071544;28;20226;-58
2022/01/18 03:33:10;;;;;;;11.30;8.30;;;;;;;3.04;100.00;96925.63;5071133;28;20203;-58
2022/01/18 03:35:36;;;;;;;13.07;9.00;;;;;;;3.06;100.00;96926.09;5071401;28;20202;-58
2022/01/18 03:38:02;;;;;;;11.13;7.90;;;;;;;3.09;100.00;96930.06;5071531;28;20217;-71
2022/01/18 03:40:28;;;;;;;13.27;8.33;;;;;;;3.09;100.00;96933.56;5071312;28;20209;-71
2022/01/18 03:42:55;;;;;;;12.97;8.93;;;;;;;3.07;100.00;96927.66;5071025;28;20251;-71
2022/01/18 03:45:32;;;;;;;13.57;8.63;;;;;;;3.08;100.00;96934.69;5071798;28;20213;-71
2022/01/18 03:48:03;;;;;;;13.23;8.43;;;;;;;3.07;100.00;96937.69;5071459;28;20265;-70
2022/01/18 03:50:28;;;;;;;14.57;8.80;;;;;;;3.08;100.00;96934.69;5071322;28;20209;-70
2022/01/18 03:52:54;;;;;;;14.10;9.73;;;;;;;3.12;100.00;96940.22;5070868;28;20169;-56
2022/01/18 03:55:21;;;;;;;11.73;8.53;;;;;;;3.12;100.00;96932.94;5071902;28;20193;-60
2022/01/18 03:57:48;;;;;;;13.73;8.97;;;;;;;3.14;100.00;96933.38;5071166;28;20206;-60
2022/01/18 04:00:18;;;;;;;15.33;9.00;;;;;;;3.12;100.00;96935.63;5070701;28;20289;-59
2022/01/18 04:02:44;;;;;;;14.03;9.47;;;;;;;3.12;100.00;96951.81;5071239;28;20237;-60
2022/01/18 04:05:10;;;;;;;13.17;8.67;;;;;;;3.12;100.00;96946.44;5070937;28;20217;-59
2022/01/18 04:07:36;;;;;;;15.67;9.63;;;;;;;3.14;100.00;96944.19;5070832;28;20201;-60
2022/01/18 04:10:03;;;;;;;12.77;9.37;;;;;;;3.15;100.00;96945.78;5070907;28;20225;-71
2022/01/18 04:12:29;;;;;;;14.17;9.20;;;;;;;3.12;100.00;96943.72;5070983;28;20205;-53
2022/01/18 04:14:54;;;;;;;12.13;9.00;;;;;;;3.14;100.00;96948.81;5071012;28;20186;-68
2022/01/18 04:28:17;;;;;;;15.20;10.03;;;;;;;3.15;100.00;96959.28;5055312;28;20207;-68
2022/01/18 04:30:43;;;;;;;13.43;9.77;;;;;;;3.16;100.00;96951.97;5070649;28;20279;-71
2022/01/18 04:33:09;;;;;;;13.20;9.10;;;;;;;3.15;100.00;96961.97;5055245;28;20198;-59
2022/01/18 04:35:34;;;;;;;13.67;9.57;;;;;;;3.13;100.00;96956.09;5070514;28;20275;-59
2022/01/18 04:38:00;;;;;;;15.43;9.53;;;;;;;3.16;100.00;96960.06;5070731;28;20210;-59
2022/01/18 04:40:29;;;;;;;13.77;9.90;;;;;;;3.16;100.00;96963.56;5071122;28;20261;-59
2022/01/18 04:48:46;;;;;;;14.80;9.30;;;;;;;3.17;100.00;96965.16;5054671;28;20200;-51
2022/01/18 04:50:59;;;;;;;14.83;10.10;;;;;;;3.17;100.00;96975.94;5049147;28;20212;-60
2022/01/18 04:53:27;;;;;;;13.93;9.20;;;;;;;3.18;100.00;96982.91;5070198;28;20671;-60
2022/01/18 04:55:56;;;;;;;17.57;11.93;;;;;;;3.20;100.00;96975.31;5070592;28;20270;-60
2022/01/18 04:58:23;;;;;;;18.07;10.47;;;;;;;3.12;100.00;96983.41;5070530;28;20218;-60
2022/01/18 05:00:49;;;;;;;14.47;9.93;;;;;;;3.08;100.00;96977.84;5069978;28;20205;-60
2022/01/18 05:03:15;;;;;;;14.20;9.57;;;;;;;3.01;100.00;96971.31;5053221;28;20248;-60
2022/01/18 05:05:40;;;;;;;13.97;9.63;;;;;;;2.97;100.00;96981.16;5069953;28;20233;-60
2022/01/18 05:08:12;;;;;;;15.43;9.33;;;;;;;2.84;100.00;96977.47;5070363;28;20206;-70
2022/01/18 05:10:37;;;;;;;14.47;9.57;;;;;;;2.73;100.00;96984.28;5069984;28;20201;-70
2022/01/18 05:13:12;;;;;;;15.10;9.63;;;;;;;2.66;100.00;96986.66;5069730;28;20194;-70
2022/01/18 05:15:45;;;;;;;14.17;9.27;;;;;;;2.57;100.00;96971.56;5053245;28;20189;-70
2022/01/18 05:19:00;;;;;;;13.93;9.57;;;;;;;2.49;100.00;96981.22;5069696;28;20241;-70
2022/01/18 05:23:39;;;;;;;17.10;10.17;;;;;;;2.33;100.00;96988.13;5054285;28;20208;-59
2022/01/18 05:26:04;;;;;;;16.90;10.33;;;;;;;2.25;100.00;96991.56;5069443;28;20300;-60
2022/01/18 05:28:29;;;;;;;17.40;10.47;;;;;;;2.21;100.00;96990.59;5069364;28;20201;-67
2022/01/18 05:30:55;;;;;;;14.17;9.53;;;;;;;2.14;100.00;96989.44;5069455;28;20215;-68
2022/01/18 05:33:22;;;;;;;15.93;9.37;;;;;;;2.09;100.00;96993.09;5069496;28;20197;-69
2022/01/18 05:35:48;;;;;;;14.77;9.83;;;;;;;2.05;100.00;96997.50;5069449;28;20212;-68
2022/01/18 05:38:14;;;;;;;15.60;10.07;;;;;;;2.00;100.00;96994.16;5069377;28;20296;-67
2022/01/18 05:40:39;;;;;;;14.87;9.67;;;;;;;1.92;100.00;96987.59;5069194;28;20201;-67
2022/01/18 05:43:05;;;;;;;15.30;9.80;;;;;;;1.87;100.00;96995.81;5069220;28;20264;-58
2022/01/18 05:45:31;;;;;;;14.43;9.73;;;;;;;1.80;100.00;96995.47;5069331;28;20200;-59
2022/01/18 05:47:57;;;;;;;13.73;8.70;;;;;;;1.76;100.00;96999.06;5069944;28;20253;-59
2022/01/18 05:50:22;;;;;;;14.73;9.50;;;;;;;1.72;100.00;96992.72;5069547;28;20327;-59
2022/01/18 05:52:48;;;;;;;13.23;8.87;;;;;;;1.68;100.00;96991.75;5069367;28;20205;-59
2022/01/18 05:55:14;;;;;;;15.37;9.17;;;;;;;1.63;100.00;96981.88;5069444;28;20300;-59
2022/01/18 05:57:40;;;;;;;14.37;9.10;;;;;;;1.57;100.00;96993.88;5069039;28;20661;-59
2022/01/18 06:00:10;;;;;;;15.70;9.57;;;;;;;1.52;100.00;96990.50;5069219;28;20209;-66
2022/01/18 06:02:43;;;;;;;16.20;9.87;;;;;;;1.49;100.00;96989.22;5069290;28;20201;-59
2022/01/18 06:07:55;;;;;;;21.63;12.17;;;;;;;1.47;100.00;96993.31;5053822;28;20230;-69
2022/01/18 06:10:21;;;;;;;17.10;11.17;;;;;;;1.43;100.00;96990.47;5069216;28;20205;-69
2022/01/18 06:12:47;;;;;;;18.47;12.17;;;;;;;1.37;100.00;96996.25;5052514;28;20210;-70
2022/01/18 06:15:12;;;;;;;17.03;10.00;;;;;;;1.36;100.00;97000.06;5068789;28;20201;-69
2022/01/18 06:17:38;;;;;;;18.33;9.67;;;;;;;1.38;100.00;97011.31;5069199;28;20208;-69
2022/01/18 06:20:05;;;;;;;16.53;10.97;;;;;;;1.33;100.00;97012.22;5068925;28;20243;-57
2022/01/18 06:22:30;;;;;;;20.77;11.20;;;;;;;1.33;100.00;97012.22;5068757;28;20253;-58
2022/01/18 06:24:55;;;;;;;17.23;10.57;;;;;;;1.32;100.00;97010.63;5068625;28;20292;-58
2022/01/18 06:27:21;;;;;;;16.80;9.83;;;;;;;1.27;100.00;97013.44;5069276;28;20205;-58
2022/01/18 06:29:46;;;;;;;14.77;9.40;;;;;;;1.25;100.00;97012.94;5068443;28;20357;-58
2022/01/18 06:32:11;;;;;;;17.43;9.50;;;;;;;1.25;100.00;97021.03;5068855;28;20200;-58
2022/01/18 06:34:37;;;;;;;16.73;9.80;;;;;;;1.21;100.00;97019.22;5068733;28;20298;-59
2022/01/18 06:37:02;;;;;;;18.27;10.57;;;;;;;1.20;100.00;97020.34;5068432;28;20202;-58
2022/01/18 06:39:28;;;;;;;15.47;9.93;;;;;;;1.19;100.00;97021.41;5068410;28;20244;-58
2022/01/18 06:41:53;;;;;;;15.03;10.23;;;;;;;1.19;100.00;97032.97;5068987;28;20197;-52
2022/01/18 06:44:19;;;;;;;17.10;10.43;;;;;;;1.24;100.00;97035.53;5068921;28;20208;-48
2022/01/18 06:46:44;;;;;;;15.83;10.07;;;;;;;1.33;100.00;97031.06;5068906;28;20201;-52
2022/01/18 06:49:10;;;;;;;15.83;10.23;;;;;;;1.42;100.00;97045.34;5068657;28;20201;-52
2022/01/18 06:51:36;;;;;;;19.37;10.77;;;;;;;1.53;100.00;97048.63;5068826;28;20267;-50
2022/01/18 06:54:02;;;;;;;17.70;10.37;;;;;;;1.64;100.00;97056.16;5068367;28;20212;-52
2022/01/18 06:56:27;;;;;;;16.13;10.43;;;;;;;1.74;100.00;97055.91;5070598;28;20226;-58
2022/01/18 06:58:53;;;;;;;22.83;11.93;;;;;;;1.86;100.00;97064.22;5071648;28;20216;-68
2022/01/18 07:01:19;;;;;;;19.57;11.17;;;;;;;1.94;100.00;97066.22;5071883;28;20311;-68
2022/01/18 07:03:47;;;;;;;17.00;10.53;;;;;;;2.07;100.00;97064.53;5072079;28;20555;-68
2022/01/18 07:06:12;;;;;;;21.63;10.97;;;;;;;2.09;100.00;97063.13;5072365;28;20197;-68
2022/01/18 07:08:38;;;;;;;20.87;10.57;;;;;;;2.17;100.00;97070.47;5071501;28;20184;-68
2022/01/18 07:11:05;;;;;;;16.80;10.30;;;;;;;2.23;100.00;97077.31;5071347;28;20205;-68
2022/01/18 07:13:31;;;;;;;20.57;11.73;;;;;;;2.29;100.00;97075.28;5071501;28;20212;-51
2022/01/18 07:15:56;;;;;;;19.20;11.10;;;;;;;2.32;100.00;97080.84;5072198;28;20212;-49
2022/01/18 07:18:21;;;;;;;20.67;11.43;;;;;;;2.35;100.00;97080.25;5071878;28;20281;-57
2022/01/18 07:20:47;;;;;;;20.53;11.30;;;;;;;2.40;100.00;97082.78;5071387;28;20209;-58
2022/01/18 07:23:13;;;;;;;20.87;10.73;;;;;;;2.44;100.00;97081.06;5071208;28;20198;-57
2022/01/18 07:25:42;;;;;;;17.00;10.80;;;;;;;2.50;100.00;97085.22;5071724;28;20267;-58
2022/01/18 07:28:10;;;;;;;17.40;11.00;;;;;;;2.50;100.00;97085.22;5055522;28;20190;-58
2022/01/18 07:30:36;;;;;;;18.10;10.67;;;;;;;2.52;100.00;97083.00;5071327;28;20205;-58
2022/01/18 07:33:02;;;;;;;17.57;10.50;;;;;;;2.46;100.00;97088.84;5071449;28;20189;-57
2022/01/18 07:35:28;;;;;;;18.90;11.00;;;;;;;2.52;100.00;97093.78;5071593;28;20220;-67
2022/01/18 07:37:53;;;;;;;20.10;12.17;;;;;;;2.54;100.00;97096.97;5070841;28;20205;-69
2022/01/18 07:40:19;;;;;;;19.87;12.07;;;;;;;2.59;100.00;97099.53;5072034;28;20230;-68
2022/01/18 07:42:44;;;;;;;23.73;12.23;;;;;;;2.63;100.00;97095.09;5071699;28;20209;-68
2022/01/18 07:45:10;;;;;;;26.77;16.10;;;;;;;2.67;100.00;97106.91;5071058;28;20198;-68
2022/01/18 07:47:35;;;;;;;21.03;13.10;;;;;;;2.69;100.00;97115.44;5071125;28;20193;-68
2022/01/18 07:50:01;;;;;;;19.37;11.50;;;;;;;2.74;100.00;97123.41;5070968;28;20204;-68
2022/01/18 07:52:26;;;;;;;18.67;10.73;;;;;;;2.82;100.00;97119.97;5070930;28;20225;-57
2022/01/18 07:54:52;;;;;;;20.03;11.03;;;;;;;2.89;100.00;97120.31;5071033;28;20283;-55
2022/01/18 07:57:19;;;;;;;21.53;12.67;;;;;;;2.98;100.00;97131.91;5070761;28;20193;-55
2022/01/18 07:59:44;;;;;;;20.07;11.37;;;;;;;3.03;100.00;97126.38;5071026;28;20205;-56
2022/01/18 08:02:10;;;;;;;17.90;9.93;;;;;;;3.02;100.00;97135.59;5070717;28;20194;-55
2022/01/18 08:04:35;;;;;;;17.90;9.90;;;;;;;3.04;100.00;97133.38;5071125;28;20205;-54
2022/01/18 08:07:00;;;;;;;17.73;9.87;;;;;;;3.05;100.00;97129.56;5070090;28;20205;-58
2022/01/18 08:09:26;;;;;;;23.73;10.83;;;;;;;3.13;100.00;97130.69;5071053;28;20166;-58
2022/01/18 08:11:52;;;;;;;17.83;10.03;;;;;;;3.21;100.00;97135.34;5070582;28;20229;-67
2022/01/18 08:14:18;;;;;;;20.03;11.90;;;;;;;3.34;100.00;97129.00;5071113;28;20202;-58
2022/01/18 08:17:05;;;;;;;20.27;11.00;;;;;;;3.43;100.00;97124.44;5070336;28;20214;-57
2022/01/18 08:19:33;;;;;;;20.87;12.43;;;;;;;3.45;100.00;97128.41;5070873;28;20216;-57
2022/01/18 08:21:59;;;;;;;18.47;10.40;;;;;;;3.48;100.00;97122.38;5070390;28;20193;-58
2022/01/18 08:24:25;;;;;;;15.97;8.83;;;;;;;3.53;100.00;97134.16;5070818;28;20237;-57
2022/01/18 08:26:51;;;;;;;14.77;8.50;;;;;;;3.54;100.00;97136.53;5071105;28;20194;-58
2022/01/18 08:29:17;;;;;;;15.17;9.17;;;;;;;3.58;100.00;97124.78;5070883;28;20221;-55
2022/01/18 08:31:42;;;;;;;15.47;8.70;;;;;;;3.60;100.00;97129.09;5070796;28;20296;-54
2022/01/18 08:34:08;;;;;;;16.10;8.33;;;;;;;3.64;100.00;97124.63;5070925;28;20273;-55
2022/01/18 08:36:34;;;;;;;17.97;9.47;;;;;;;3.72;100.00;97131.94;5070765;28;20198;-54
2022/01/18 08:39:00;;;;;;;13.40;8.77;;;;;;;3.69;100.00;97127.97;5070139;28;20218;-54
2022/01/18 08:41:26;;;;;;;15.17;9.43;;;;;;;3.72;100.00;97131.94;5070506;28;20201;-55
2022/01/18 08:43:52;;;;;;;18.47;10.43;;;;;;;3.69;100.00;97135.28;5070041;28;20193;-55
2022/01/18 08:46:17;;;;;;;15.03;9.90;;;;;;;3.70;100.00;97131.44;5070303;28;20198;-57
2022/01/18 08:48:43;;;;;;;15.33;10.00;;;;;;;3.72;100.00;97131.94;5070069;28;20209;-57
2022/01/18 08:51:09;;;;;;;20.93;11.93;;;;;;;3.70;100.00;97139.56;5069982;28;20200;-57
2022/01/18 08:53:35;;;;;;;17.47;11.33;;;;;;;3.69;100.00;97135.28;5070267;28;20194;-57
2022/01/18 08:56:01;;;;;;;14.90;9.43;;;;;;;3.72;100.00;97135.47;5070122;28;20204;-58
2022/01/18 08:58:27;;;;;;;17.53;10.00;;;;;;;3.70;100.00;97139.56;5070015;28;20206;-57
2022/01/18 09:00:53;;;;;;;15.83;9.57;;;;;;;3.73;100.00;97149.72;5070371;28;20204;-57
2022/01/18 09:03:18;;;;;;;18.23;10.23;;;;;;;3.71;100.00;97149.28;5069804;28;20300;-58
2022/01/18 09:05:45;;;;;;;16.40;10.30;;;;;;;3.75;100.00;97152.94;5070605;28;20170;-60
2022/01/18 09:08:12;;;;;;;20.07;10.53;;;;;;;3.79;100.00;97153.88;5069680;28;20194;-67
2022/01/18 09:10:38;;;;;;;18.43;10.37;;;;;;;3.84;100.00;97151.81;5070177;28;20198;-67
2022/01/18 09:13:04;;;;;;;16.07;9.90;;;;;;;3.91;100.00;97156.75;5070237;28;20357;-68
2022/01/18 09:15:30;;;;;;;18.33;10.10;;;;;;;3.93;100.00;97154.53;5070107;28;20200;-68
2022/01/18 09:17:55;;;;;;;16.47;9.77;;;;;;;3.96;100.00;97160.09;5068683;28;20214;-67
2022/01/18 09:20:23;;;;;;;15.67;9.43;;;;;;;3.99;100.00;97158.66;5053722;28;20209;-67
2022/01/18 09:22:48;;;;;;;19.33;9.53;;;;;;;3.95;100.00;97153.09;5069976;28;20191;-55
2022/01/18 09:25:23;;;;;;;15.20;9.10;;;;;;;4.01;100.00;97156.44;5070033;28;20200;-58
2022/01/18 09:27:50;;;;;;;15.23;9.87;;;;;;;4.02;100.00;97155.31;5069771;28;20659;-55
2022/01/18 09:30:16;;;;;;;16.37;8.70;;;;;;;4.00;100.00;97162.97;5069455;28;20201;-55
2022/01/18 09:32:45;;;;;;;17.63;9.57;;;;;;;4.03;100.00;97165.00;5070091;28;20208;-55
2022/01/18 09:35:12;;;;;;;13.37;9.07;;;;;;;4.08;100.00;97181.88;5053071;28;20201;-53
2022/01/18 09:37:38;;;;;;;28.53;17.63;;;;;;;4.07;100.00;97172.19;5069965;28;20194;-55
2022/01/18 09:40:06;;;;;;;13.87;8.40;;;;;;;4.11;100.00;97175.06;5069104;28;20233;-55
2022/01/18 09:42:37;;;;;;;27.23;15.23;;;;;;;4.18;100.00;97167.28;5069442;28;20243;-48
2022/01/18 09:45:08;;;;;;;13.43;8.83;;;;;;;4.20;100.00;97179.34;5053920;28;20198;-55
2022/01/18 09:47:36;;;;;;;12.67;8.80;;;;;;;4.25;100.00;97178.38;5069271;28;20253;-55
2022/01/18 09:50:03;;;;;;;14.03;8.33;;;;;;;4.21;100.00;97180.94;5069453;28;20194;-54
2022/01/18 09:52:28;;;;;;;15.60;9.10;;;;;;;4.04;100.00;97183.63;5069247;28;20227;-55
2022/01/18 09:54:53;;;;;;;15.67;9.07;;;;;;;3.95;100.00;97182.03;5069835;28;20222;-55
2022/01/18 09:57:19;;;;;;;15.60;9.30;;;;;;;3.99;100.00;97185.69;5053130;28;20190;-56
2022/01/18 09:59:44;;;;;;;18.13;10.23;;;;;;;4.05;100.00;97184.41;5069190;28;20227;-55
2022/01/18 10:02:10;;;;;;;15.63;8.83;;;;;;;4.09;100.00;97180.78;5069539;28;20217;-67
2022/01/18 10:04:41;;;;;;;11.50;6.90;;;;;;;3.99;100.00;97172.16;5069274;28;20221;-58
2022/01/18 10:07:06;;;;;;;11.17;5.93;;;;;;;3.94;100.00;97173.13;5069027;28;20202;-58
2022/01/18 10:09:32;;;;;;;12.20;6.03;;;;;;;4.00;100.00;97176.47;5069115;28;20559;-58
2022/01/18 10:12:15;;;;;;;30.90;16.10;;;;;;;4.02;100.00;97169.63;5069251;28;20212;-59
2022/01/18 10:14:55;;;;;;;14.17;7.40;;;;;;;4.04;100.00;97177.44;5069050;28;20689;-58
2022/01/18 10:17:30;;;;;;;11.03;5.53;;;;;;;3.97;100.00;97182.50;5069295;28;20235;-66
2022/01/18 10:20:04;;;;;;;13.10;5.67;;;;;;;3.85;100.00;97164.22;5052254;28;20187;-67
2022/01/18 10:22:48;;;;;;;10.83;5.17;;;;;;;4.01;100.00;97167.25;5068909;28;20205;-56
2022/01/18 10:25:22;;;;;;;10.83;5.17;;;;;;;3.95;100.00;97163.09;5069142;28;20198;-54
2022/01/18 10:27:51;;;;;;;12.20;5.90;;;;;;;4.00;100.00;97165.66;5068965;28;20198;-55
2022/01/18 10:30:26;;;;;;;14.37;6.13;;;;;;;4.07;100.00;97166.00;5070922;28;20217;-55
2022/01/18 10:33:10;;;;;;;9.43;5.77;;;;;;;4.04;100.00;97162.00;5072279;28;20205;-56
2022/01/18 10:35:36;;;;;;;14.53;6.73;;;;;;;4.05;100.00;97160.09;5055603;28;20292;-58
2022/01/18 10:38:15;;;;;;;13.80;6.53;;;;;;;3.95;100.00;97155.00;5072230;28;20277;-49
2022/01/18 10:40:40;;;;;;;12.40;6.83;;;;;;;3.85;100.00;97142.59;5072704;28;20267;-58
2022/01/18 10:43:07;;;;;;;11.67;6.30;;;;;;;3.90;100.00;97144.34;5072402;28;20198;-58
2022/01/18 10:45:35;;;;;;;13.77;6.80;;;;;;;3.92;100.00;97145.63;5072146;28;20289;-58
2022/01/18 10:48:13;;;;;;;14.23;6.83;;;;;;;3.77;100.00;97138.00;5072028;28;20206;-58
2022/01/18 10:50:43;;;;;;;12.70;6.50;;;;;;;3.89;100.00;97131.97;5071800;28;20561;-58
2022/01/18 10:53:17;;;;;;;11.93;6.10;;;;;;;3.94;100.00;97134.50;5072091;28;20256;-58
2022/01/18 10:55:45;;;;;;;9.07;5.03;;;;;;;3.76;100.00;97127.50;5071993;28;20197;-58
2022/01/18 10:58:12;;;;;;;11.67;5.43;;;;;;;3.81;100.00;97119.22;5072017;28;20217;-51
2022/01/18 11:00:38;;;;;;;8.43;5.10;;;;;;;3.90;100.00;97111.94;5056392;28;20198;-49
2022/01/18 11:03:06;;;;;;;9.30;4.70;;;;;;;3.82;100.00;97115.44;5071632;28;20288;-50
2022/01/18 11:05:35;;;;;;;7.47;4.67;;;;;;;3.89;100.00;97103.03;5071949;28;20205;-49
2022/01/18 11:08:04;;;;;;;9.70;4.80;;;;;;;4.02;100.00;97101.28;5055241;28;20194;-49
2022/01/18 11:10:34;;;;;;;7.93;4.50;;;;;;;4.03;100.00;97100.16;5055623;28;20205;-47
2022/01/18 11:15:33;;;;;;;8.87;4.10;;;;;;;3.92;100.00;97098.88;5056491;28;20202;-58
2022/01/18 11:18:03;;;;;;;6.77;4.00;;;;;;;4.10;100.00;97095.06;5071614;28;20209;-51
2022/01/18 11:20:35;;;;;;;6.20;3.90;;;;;;;4.06;100.00;97099.53;5072302;28;20205;-49
2022/01/18 11:23:04;;;;;;;7.10;4.70;;;;;;;4.10;100.00;97095.88;5071847;28;20170;-47
2022/01/18 11:25:30;;;;;;;6.90;4.40;;;;;;;3.96;100.00;97089.06;5072091;28;20203;-48
2022/01/18 11:27:58;;;;;;;16.30;8.63;;;;;;;4.20;100.00;97094.75;5071896;28;20201;-50
2022/01/18 11:30:29;;;;;;;10.37;4.40;;;;;;;4.24;100.00;97085.69;5071709;28;20313;-48
2022/01/18 11:32:56;;;;;;;7.30;3.93;;;;;;;4.34;100.00;97084.53;5071260;28;20207;-66
2022/01/18 11:35:57;;;;;;;7.17;3.80;;;;;;;4.38;100.00;97086.28;5071581;28;20197;-59
2022/01/18 11:38:34;;;;;;;6.63;2.97;;;;;;;4.33;100.00;97094.56;5071643;28;20216;-59
2022/01/18 11:41:02;;;;;;;8.00;3.07;;;;;;;4.19;100.00;97099.34;5070575;28;20264;-60
2022/01/18 11:43:45;;;;;;;10.50;3.10;;;;;;;4.26;100.00;97093.47;5071187;28;20190;-59
2022/01/18 11:46:32;;;;;;;8.47;3.50;;;;;;;4.37;100.00;97094.72;5071382;28;20195;-59
2022/01/18 11:49:15;;;;;;;11.47;4.37;;;;;;;4.33;100.00;97088.38;5071696;28;20197;-59
2022/01/18 11:52:06;;;;;;;10.23;4.13;;;;;;;4.29;100.00;97090.91;5071245;28;20194;-58
2022/01/18 11:54:56;;;;;;;5.97;3.20;;;;;;;4.47;100.00;97083.53;5019015;28;20191;-68
2022/01/18 11:57:21;;;;;;;6.33;3.60;;;;;;;4.34;100.00;97090.75;5054752;28;20203;-68
2022/01/18 11:59:48;;;;;;;7.20;3.60;;;;;;;4.46;100.00;97076.56;5054183;28;20210;-68
2022/01/18 12:02:27;;;;;;;11.37;3.87;;;;;;;4.48;100.00;97080.50;5070776;28;20203;-68
2022/01/18 12:04:55;;;;;;;7.10;4.00;;;;;;;4.53;100.00;97084.97;5071280;28;20198;-68
2022/01/18 12:07:33;;;;;;;7.93;4.10;;;;;;;4.60;100.00;97083.38;5054721;28;20290;-68
2022/01/18 12:09:59;;;;;;;10.40;4.40;;;;;;;4.62;100.00;97077.63;5053888;28;20193;-57
2022/01/18 12:12:52;;;;;;;8.00;4.20;;;;;;;4.73;100.00;97070.75;5070665;28;20207;-59
2022/01/18 12:15:23;;;;;;;7.97;3.97;;;;;;;4.69;100.00;97069.78;5050941;28;20219;-59
2022/01/18 12:17:49;;;;;;;9.53;4.57;;;;;;;4.58;100.00;97073.97;5055110;28;20210;-59
2022/01/18 12:20:34;;;;;;;8.87;4.40;;;;;;;4.63;100.00;97071.88;5071056;28;20683;-59
2022/01/18 12:23:06;;;;;;;8.33;4.13;;;;;;;4.65;100.00;97071.56;5053885;28;20191;-60
2022/01/18 12:25:36;;;;;;;11.07;3.77;;;;;;;4.53;100.00;97066.03;5070523;28;20202;-59
2022/01/18 12:34:29;;;;;;;7.63;4.00;;;;;;;4.61;100.00;97057.09;5055042;28;20201;-56
2022/01/18 12:37:07;;;;;;;5.73;3.77;;;;;;;4.55;100.00;97058.41;5054343;28;20212;-54
2022/01/18 12:39:51;;;;;;;7.57;4.03;;;;;;;4.63;100.00;97049.47;5054215;28;20206;-55